createdAt,value
2018-06-14T00:02:06.101Z,4.30
2018-06-14T00:04:35.176Z,4.13
2018-06-14T00:07:04.177Z,4.70
2018-06-14T00:09:33.170Z,4.70
2018-06-14T00:12:01.887Z,4.70
2018-06-14T00:14:30.563Z,3.80
2018-06-14T00:16:59.498Z,4.53
2018-06-14T00:19:28.303Z,4.30
2018-06-14T00:21:57.003Z,4.13
2018-06-14T00:24:25.854Z,5.17
2018-06-14T00:26:54.831Z,6.67
2018-06-14T00:29:23.566Z,5.43
2018-06-14T00:31:52.513Z,5.83
2018-06-14T00:34:21.120Z,5.40
2018-06-14T00:36:49.959Z,4.77
2018-06-14T00:39:18.750Z,6.50
2018-06-14T00:41:47.692Z,4.80
2018-06-14T00:44:16.706Z,6.13
2018-06-14T00:46:45.826Z,6.17
2018-06-14T00:49:20.591Z,5.47
2018-06-14T00:51:49.622Z,4.20
2018-06-14T00:54:18.747Z,4.50
2018-06-14T00:56:58.518Z,5.43
2018-06-14T00:59:27.539Z,5.70
2018-06-14T01:01:56.482Z,5.83
2018-06-14T01:04:25.383Z,6.73
2018-06-14T01:06:54.428Z,6.30
2018-06-14T01:09:23.386Z,6.17
2018-06-14T01:11:52.381Z,5.73
2018-06-14T01:14:21.301Z,6.67
2018-06-14T01:16:56.727Z,5.90
2018-06-14T01:19:25.714Z,6.20
2018-06-14T01:21:54.683Z,6.63
2018-06-14T01:24:23.571Z,5.23
2018-06-14T01:26:55.249Z,5.17
2018-06-14T01:29:24.477Z,4.87
2018-06-14T01:31:53.471Z,5.33
2018-06-14T01:34:22.439Z,6.00
2018-06-14T01:36:51.399Z,6.30
2018-06-14T01:39:20.409Z,6.43
2018-06-14T01:41:49.440Z,7.10
2018-06-14T01:44:18.377Z,6.40
2018-06-14T01:46:47.347Z,6.40
2018-06-14T01:49:16.339Z,7.40
2018-06-14T01:51:45.304Z,7.00
2018-06-14T01:54:14.183Z,6.33
2018-06-14T01:56:43.171Z,9.03
2018-06-14T01:59:12.248Z,9.87
2018-06-14T02:01:41.248Z,7.93
2018-06-14T02:04:09.919Z,8.93
2018-06-14T02:06:38.897Z,8.37
2018-06-14T02:09:08.844Z,7.77
2018-06-14T02:11:37.973Z,9.60
2018-06-14T02:14:07.120Z,9.50
2018-06-14T02:16:36.183Z,8.93
2018-06-14T02:19:05.195Z,7.30
2018-06-14T02:21:34.171Z,8.37
2018-06-14T02:24:03.198Z,8.30
2018-06-14T02:26:32.183Z,7.77
2018-06-14T02:29:01.264Z,9.10
2018-06-14T02:31:30.327Z,8.37
2018-06-14T02:33:59.303Z,8.43
2018-06-14T02:36:28.339Z,7.77
2018-06-14T02:38:57.310Z,7.23
2018-06-14T02:41:26.269Z,7.17
2018-06-14T02:43:55.224Z,6.80
2018-06-14T02:46:23.908Z,7.93
2018-06-14T02:48:52.541Z,8.20
2018-06-14T02:51:21.324Z,8.23
2018-06-14T02:53:50.338Z,8.80
2018-06-14T02:56:19.292Z,9.27
2018-06-14T02:58:52.805Z,9.20
2018-06-14T03:01:21.545Z,8.80
2018-06-14T03:03:50.227Z,8.30
2018-06-14T03:06:18.925Z,8.33
2018-06-14T03:08:47.644Z,8.40
2018-06-14T03:11:16.272Z,8.43
2018-06-14T03:13:45.120Z,9.10
2018-06-14T03:16:14.005Z,9.13
2018-06-14T03:18:42.990Z,8.30
2018-06-14T03:21:11.948Z,8.20
2018-06-14T03:23:40.950Z,8.70
2018-06-14T03:26:10.117Z,8.33
2018-06-14T03:28:39.099Z,7.57
2018-06-14T03:31:08.057Z,7.57
2018-06-14T03:33:36.702Z,7.20
2018-06-14T03:36:05.502Z,7.73
2018-06-14T03:38:34.205Z,10.60
2018-06-14T03:41:02.821Z,6.83
2018-06-14T03:43:31.474Z,8.20
2018-06-14T03:46:00.438Z,7.60
2018-06-14T03:48:29.418Z,8.50
2018-06-14T03:50:58.437Z,7.27
2018-06-14T03:53:27.409Z,7.53
2018-06-14T03:55:56.412Z,7.37
2018-06-14T03:58:25.262Z,9.20
2018-06-14T04:00:54.219Z,7.83
2018-06-14T04:03:23.139Z,8.10
2018-06-14T04:05:52.053Z,9.13
2018-06-14T04:08:21.497Z,7.33
2018-06-14T04:10:50.463Z,7.53
2018-06-14T04:13:19.461Z,8.23
2018-06-14T04:15:48.416Z,7.53
2018-06-14T04:18:17.379Z,8.80
2018-06-14T04:20:46.339Z,7.40
2018-06-14T04:23:15.268Z,6.93
2018-06-14T04:25:44.221Z,6.40
2018-06-14T04:28:13.156Z,7.13
2018-06-14T04:30:42.077Z,7.23
2018-06-14T04:33:11.007Z,8.40
2018-06-14T04:35:39.965Z,7.63
2018-06-14T04:38:08.870Z,8.57
2018-06-14T04:40:37.923Z,8.57
2018-06-14T04:43:07.037Z,7.90
2018-06-14T04:45:35.863Z,7.60
2018-06-14T04:48:04.861Z,7.40
2018-06-14T04:50:33.836Z,8.03
2018-06-14T04:53:02.650Z,6.70
2018-06-14T04:55:31.500Z,8.07
2018-06-14T04:58:00.406Z,7.13
2018-06-14T05:00:29.181Z,8.50
2018-06-14T05:02:57.868Z,7.17
2018-06-14T05:05:26.878Z,7.60
2018-06-14T05:07:55.856Z,6.87
2018-06-14T05:10:24.869Z,7.87
2018-06-14T05:12:53.797Z,6.57
2018-06-14T05:15:22.779Z,7.00
2018-06-14T05:17:51.721Z,6.80
2018-06-14T05:20:20.626Z,7.10
2018-06-14T05:22:49.602Z,6.47
2018-06-14T05:25:18.668Z,5.83
2018-06-14T05:27:47.596Z,6.23
2018-06-14T05:30:16.755Z,6.07
2018-06-14T05:32:45.384Z,6.33
2018-06-14T05:35:14.217Z,6.93
2018-06-14T05:37:43.184Z,7.47
2018-06-14T05:40:12.125Z,5.73
2018-06-14T05:42:41.183Z,6.63
2018-06-14T05:45:10.129Z,5.83
2018-06-14T05:47:39.235Z,6.40
2018-06-14T05:50:11.909Z,5.33
2018-06-14T05:52:41.001Z,5.93
2018-06-14T05:55:09.951Z,7.10
2018-06-14T05:57:38.939Z,5.83
2018-06-14T06:00:11.743Z,6.00
2018-06-14T06:02:40.549Z,6.83
2018-06-14T06:05:09.219Z,5.57
2018-06-14T06:07:38.176Z,4.50
2018-06-14T06:10:07.481Z,5.87
2018-06-14T06:12:36.605Z,4.67
2018-06-14T06:15:06.071Z,5.40
2018-06-14T06:17:35.053Z,5.37
2018-06-14T06:20:03.851Z,5.70
2018-06-14T06:22:32.650Z,5.17
2018-06-14T06:25:02.446Z,5.10
2018-06-14T06:27:31.153Z,5.20
2018-06-14T06:30:00.109Z,5.50
2018-06-14T06:32:29.196Z,5.30
2018-06-14T06:34:58.198Z,5.50
2018-06-14T06:37:26.949Z,5.43
2018-06-14T06:39:56.480Z,5.30
2018-06-14T06:42:25.129Z,5.10
2018-06-14T06:44:53.985Z,5.00
2018-06-14T06:47:22.969Z,5.10
2018-06-14T06:49:52.175Z,4.83
2018-06-14T06:52:21.172Z,4.53
2018-06-14T06:54:50.412Z,4.67
2018-06-14T06:57:19.216Z,4.70
2018-06-14T06:59:49.430Z,5.80
2018-06-14T07:02:18.342Z,5.20
2018-06-14T07:04:47.294Z,4.97
2018-06-14T07:07:16.144Z,5.27
2018-06-14T07:09:45.119Z,5.67
2018-06-14T07:12:14.070Z,5.40
2018-06-14T07:14:42.999Z,4.87
2018-06-14T07:17:12.001Z,5.30
2018-06-14T07:19:40.968Z,4.90
2018-06-14T07:22:09.883Z,5.37
2018-06-14T07:24:38.832Z,5.00
2018-06-14T07:27:07.883Z,5.10
2018-06-14T07:29:36.897Z,4.90
2018-06-14T07:32:05.943Z,4.77
2018-06-14T07:34:34.860Z,4.33
2018-06-14T07:37:03.814Z,5.60
2018-06-14T07:39:32.713Z,4.43
2018-06-14T07:42:01.487Z,4.63
2018-06-14T07:44:31.347Z,4.70
2018-06-14T07:47:00.351Z,4.63
2018-06-14T07:49:29.336Z,5.53
2018-06-14T07:51:58.251Z,5.03
2018-06-14T07:54:26.860Z,4.73
2018-06-14T07:56:55.954Z,4.63
2018-06-14T07:59:24.733Z,5.10
2018-06-14T08:01:54.266Z,5.37
2018-06-14T08:04:23.089Z,5.10
2018-06-14T08:06:51.587Z,5.80
2018-06-14T08:09:20.424Z,5.17
2018-06-14T08:11:49.217Z,4.97
2018-06-14T08:14:17.992Z,4.50
2018-06-14T08:16:46.654Z,4.80
2018-06-14T08:19:15.533Z,4.13
2018-06-14T08:21:44.326Z,4.93
2018-06-14T08:24:13.120Z,4.80
2018-06-14T08:26:41.973Z,4.33
2018-06-14T08:29:10.864Z,4.37
2018-06-14T08:31:45.166Z,4.00
2018-06-14T08:34:14.113Z,3.90
2018-06-14T08:36:43.024Z,4.30
2018-06-14T08:39:11.907Z,5.00
2018-06-14T08:41:40.827Z,4.53
2018-06-14T08:44:09.737Z,3.73
2018-06-14T08:46:41.449Z,4.40
2018-06-14T08:49:10.549Z,4.30
2018-06-14T08:51:39.689Z,4.20
2018-06-14T08:54:09.014Z,4.13
2018-06-14T08:56:38.162Z,5.50
2018-06-14T08:59:07.281Z,4.97
2018-06-14T09:01:36.557Z,5.00
2018-06-14T09:04:06.063Z,5.17
2018-06-14T09:06:35.212Z,4.77
2018-06-14T09:09:09.877Z,4.67
2018-06-14T09:11:39.487Z,4.00
2018-06-14T09:14:09.157Z,4.20
2018-06-14T09:16:38.886Z,3.30
2018-06-14T09:19:08.172Z,4.67
2018-06-14T09:21:54.222Z,4.97
2018-06-14T09:24:23.217Z,4.57
2018-06-14T09:26:52.224Z,4.80
2018-06-14T09:29:21.086Z,4.00
2018-06-14T09:31:50.678Z,4.63
2018-06-14T09:34:20.030Z,4.37
2018-06-14T09:36:49.185Z,5.50
2018-06-14T09:39:18.126Z,5.40
2018-06-14T09:41:47.004Z,5.30
2018-06-14T09:44:15.870Z,6.57
2018-06-14T09:46:44.965Z,6.77
2018-06-14T09:49:16.131Z,5.83
2018-06-14T09:51:46.506Z,5.53
2018-06-14T09:54:15.503Z,6.13
2018-06-14T09:56:44.873Z,6.67
2018-06-14T09:59:14.645Z,6.60
2018-06-14T10:01:43.592Z,6.10
2018-06-14T10:04:12.386Z,7.23
2018-06-14T10:06:41.508Z,8.33
2018-06-14T10:09:12.065Z,7.47
2018-06-14T10:11:41.569Z,8.03
2018-06-14T10:14:10.887Z,6.90
2018-06-14T10:16:39.829Z,7.00
2018-06-14T10:19:08.883Z,7.77
2018-06-14T10:21:38.222Z,8.83
2018-06-14T10:24:07.451Z,8.40
2018-06-14T10:26:36.604Z,8.73
2018-06-14T10:29:05.713Z,8.23
2018-06-14T10:31:38.227Z,8.73
2018-06-14T10:34:07.680Z,8.87
2018-06-14T10:36:37.010Z,7.43
2018-06-14T10:39:07.804Z,7.40
2018-06-14T10:41:37.158Z,8.47
2018-06-14T10:44:06.281Z,9.00
2018-06-14T10:46:35.460Z,9.80
2018-06-14T10:49:04.800Z,12.27
2018-06-14T10:51:33.453Z,10.37
2018-06-14T10:54:02.114Z,10.67
2018-06-14T10:56:30.807Z,9.80
2018-06-14T10:58:59.736Z,9.93
2018-06-14T11:01:29.405Z,10.03
2018-06-14T11:03:59.116Z,8.80
2018-06-14T11:06:28.156Z,9.87
2018-06-14T11:08:57.326Z,9.73
2018-06-14T11:11:26.397Z,9.10
2018-06-14T11:13:55.597Z,8.50
2018-06-14T11:16:24.691Z,8.13
2018-06-14T11:18:53.657Z,9.37
2018-06-14T11:21:22.690Z,10.13
2018-06-14T11:23:51.677Z,9.77
2018-06-14T11:26:20.722Z,8.60
2018-06-14T11:28:49.723Z,8.83
2018-06-14T11:31:18.759Z,8.47
2018-06-14T11:33:47.679Z,9.40
2018-06-14T11:36:16.624Z,11.30
2018-06-14T11:38:46.068Z,9.23
2018-06-14T11:41:15.252Z,9.70
2018-06-14T11:43:44.377Z,9.47
2018-06-14T11:46:13.587Z,9.03
2018-06-14T11:48:42.832Z,9.17
2018-06-14T11:51:11.837Z,9.37
2018-06-14T11:53:40.887Z,10.37
2018-06-14T11:56:09.969Z,8.90
2018-06-14T11:58:38.897Z,9.70
2018-06-14T12:01:08.585Z,10.80
2018-06-14T12:03:37.610Z,9.60
2018-06-14T12:06:06.677Z,10.60
2018-06-14T12:08:35.643Z,10.07
2018-06-14T12:11:05.094Z,9.70
2018-06-14T12:13:40.995Z,9.40
2018-06-14T12:16:09.989Z,8.60
2018-06-14T12:18:39.457Z,9.07
2018-06-14T12:21:08.375Z,9.87
2018-06-14T12:23:37.387Z,9.43
2018-06-14T12:26:06.399Z,8.07
2018-06-14T12:28:35.383Z,7.23
2018-06-14T12:31:04.089Z,8.40
2018-06-14T12:33:33.102Z,8.60
2018-06-14T12:36:02.725Z,6.33
2018-06-14T12:38:32.062Z,8.23
2018-06-14T12:41:01.149Z,7.37
2018-06-14T12:43:30.498Z,6.87
2018-06-14T12:45:59.844Z,7.03
2018-06-14T12:48:28.967Z,6.17
2018-06-14T12:50:58.168Z,5.40
2018-06-14T12:53:27.168Z,5.13
2018-06-14T12:55:57.161Z,4.70
2018-06-14T12:58:26.592Z,5.07
2018-06-14T13:00:55.757Z,5.60
2018-06-14T13:03:24.931Z,4.80
2018-06-14T13:05:54.003Z,5.53
2018-06-14T13:08:23.137Z,5.60
2018-06-14T13:10:52.183Z,5.53
2018-06-14T13:13:21.362Z,4.87
2018-06-14T13:15:50.372Z,5.30
2018-06-14T13:18:22.655Z,5.43
2018-06-14T13:20:52.260Z,5.90
2018-06-14T13:23:21.332Z,6.50
2018-06-14T13:25:50.791Z,9.47
2018-06-14T13:28:19.869Z,8.83
2018-06-14T13:30:49.048Z,8.40
2018-06-14T13:33:18.044Z,8.37
2018-06-14T13:35:47.065Z,8.13
2018-06-14T13:38:16.068Z,5.90
2018-06-14T13:40:44.946Z,8.77
2018-06-14T13:43:14.331Z,6.60
2018-06-14T13:45:43.259Z,7.30
2018-06-14T13:48:12.591Z,6.80
2018-06-14T13:50:41.573Z,7.50
2018-06-14T13:53:10.423Z,7.30
2018-06-14T13:55:39.348Z,6.90
2018-06-14T13:58:08.273Z,6.87
2018-06-14T14:00:37.175Z,7.80
2018-06-14T14:03:07.024Z,5.80
2018-06-14T14:05:35.951Z,6.30
2018-06-14T14:08:04.860Z,7.00
2018-06-14T14:10:33.772Z,8.10
2018-06-14T14:13:02.681Z,8.53
2018-06-14T14:15:31.659Z,9.10
2018-06-14T14:18:00.702Z,10.43
2018-06-14T14:20:29.824Z,9.53
2018-06-14T14:22:58.888Z,8.50
2018-06-14T14:25:27.845Z,7.80
2018-06-14T14:27:56.824Z,7.77
2018-06-14T14:30:25.806Z,7.77
2018-06-14T14:32:54.777Z,6.97
2018-06-14T14:35:23.973Z,8.40
2018-06-14T14:37:52.738Z,8.23
2018-06-14T14:40:21.632Z,7.43
2018-06-14T14:42:50.629Z,6.40
2018-06-14T14:45:19.568Z,6.43
2018-06-14T14:47:48.722Z,7.70
2018-06-14T14:50:17.842Z,7.57
2018-06-14T14:52:46.812Z,8.20
2018-06-14T14:55:15.905Z,6.60
2018-06-14T14:57:44.841Z,6.90
2018-06-14T15:00:13.900Z,5.63
2018-06-14T15:02:42.949Z,7.03
2018-06-14T15:05:11.883Z,6.40
2018-06-14T15:07:40.820Z,6.13
2018-06-14T15:10:09.768Z,6.30
2018-06-14T15:12:38.717Z,6.93
2018-06-14T15:15:07.696Z,7.00
2018-06-14T15:17:36.754Z,6.33
2018-06-14T15:20:05.747Z,6.30
2018-06-14T15:22:35.268Z,8.20
2018-06-14T15:25:04.239Z,7.93
2018-06-14T15:27:33.249Z,9.10
2018-06-14T15:30:02.605Z,7.63
2018-06-14T15:32:31.982Z,8.60
2018-06-14T15:35:01.421Z,9.27
2018-06-14T15:37:30.374Z,7.90
2018-06-14T15:39:59.325Z,8.47
2018-06-14T15:42:28.300Z,7.60
2018-06-14T15:44:57.230Z,9.00
2018-06-14T15:47:26.283Z,7.70
2018-06-14T15:49:55.355Z,7.00
2018-06-14T15:52:24.419Z,7.37
2018-06-14T15:55:04.293Z,8.67
2018-06-14T15:57:33.355Z,7.57
2018-06-14T16:00:02.299Z,8.30
2018-06-14T16:02:31.280Z,7.60
2018-06-14T16:05:00.489Z,7.80
2018-06-14T16:07:29.431Z,8.30
2018-06-14T16:09:58.426Z,7.80
2018-06-14T16:12:27.430Z,8.90
2018-06-14T16:14:56.497Z,7.07
2018-06-14T16:17:25.449Z,7.77
2018-06-14T16:19:54.380Z,8.50
2018-06-14T16:22:23.323Z,8.73
2018-06-14T16:24:52.311Z,8.23
2018-06-14T16:27:21.309Z,8.40
2018-06-14T16:29:50.289Z,8.83
2018-06-14T16:32:19.265Z,9.30
2018-06-14T16:34:48.200Z,7.47
2018-06-14T16:37:17.397Z,7.53
2018-06-14T16:39:46.582Z,8.50
2018-06-14T16:42:15.671Z,9.03
2018-06-14T16:44:45.376Z,7.50
2018-06-14T16:47:14.510Z,7.60
2018-06-14T16:49:43.681Z,6.87
2018-06-14T16:52:12.782Z,8.10
2018-06-14T16:54:41.715Z,8.00
2018-06-14T16:57:10.744Z,7.93
2018-06-14T16:59:39.937Z,8.37
2018-06-14T17:02:08.953Z,7.27
2018-06-14T17:04:37.970Z,7.73
2018-06-14T17:07:06.958Z,7.50
2018-06-14T17:09:35.911Z,8.17
2018-06-14T17:12:05.079Z,7.00
2018-06-14T17:14:34.684Z,6.93
2018-06-14T17:17:03.635Z,7.53
2018-06-14T17:19:32.669Z,8.13
2018-06-14T17:22:04.836Z,8.50
2018-06-14T17:24:33.804Z,9.17
2018-06-14T17:27:04.993Z,7.77
2018-06-14T17:29:34.511Z,7.00
2018-06-14T17:32:03.756Z,7.47
2018-06-14T17:34:32.889Z,7.77
2018-06-14T17:37:02.002Z,7.30
2018-06-14T17:39:31.276Z,6.20
2018-06-14T17:42:00.602Z,8.00
2018-06-14T17:44:29.833Z,8.40
2018-06-14T17:46:59.193Z,7.87
2018-06-14T17:49:28.399Z,7.40
2018-06-14T17:51:57.646Z,6.90
2018-06-14T17:54:26.536Z,7.77
2018-06-14T17:56:55.514Z,8.03
2018-06-14T17:59:24.505Z,6.90
2018-06-14T18:01:53.542Z,7.23
2018-06-14T18:04:22.860Z,6.80
2018-06-14T18:06:52.070Z,6.93
2018-06-14T18:09:21.470Z,7.40
2018-06-14T18:11:50.780Z,7.93
2018-06-14T18:14:19.942Z,6.90
2018-06-14T18:16:48.982Z,6.83
2018-06-14T18:19:18.099Z,7.00
2018-06-14T18:21:47.132Z,8.60
2018-06-14T18:24:16.185Z,7.13
2018-06-14T18:26:45.195Z,7.83
2018-06-14T18:29:14.215Z,7.73
2018-06-14T18:31:43.186Z,8.67
2018-06-14T18:34:12.979Z,8.97
2018-06-14T18:36:42.116Z,9.63
2018-06-14T18:39:11.984Z,9.83
2018-06-14T18:41:40.961Z,8.47
2018-06-14T18:44:10.032Z,9.17
2018-06-14T18:46:39.911Z,8.90
2018-06-14T18:49:08.999Z,6.77
2018-06-14T18:51:38.010Z,7.23
2018-06-14T18:54:07.114Z,7.77
2018-06-14T18:56:36.145Z,10.03
2018-06-14T18:59:08.773Z,8.10
2018-06-14T19:01:37.746Z,7.80
2018-06-14T19:04:06.867Z,7.93
2018-06-14T19:06:37.272Z,8.87
2018-06-14T19:09:08.909Z,9.40
2018-06-14T19:11:38.687Z,9.50
2018-06-14T19:14:08.232Z,8.27
2018-06-14T19:16:37.266Z,8.30
2018-06-14T19:19:06.334Z,9.00
2018-06-14T19:21:35.297Z,8.37
2018-06-14T19:24:04.265Z,6.70
2018-06-14T19:26:49.071Z,8.23
2018-06-14T19:29:18.084Z,9.43
2018-06-14T19:31:47.112Z,9.33
2018-06-14T19:34:16.157Z,8.60
2018-06-14T19:36:45.080Z,9.53
2018-06-14T19:39:14.064Z,7.67
2018-06-14T19:41:43.064Z,7.13
2018-06-14T19:44:12.138Z,8.00
2018-06-14T19:46:41.180Z,7.83
2018-06-14T19:49:10.181Z,8.30
2018-06-14T19:51:39.092Z,8.87
2018-06-14T19:54:08.146Z,8.37
2018-06-14T19:56:37.101Z,7.37
2018-06-14T19:59:12.096Z,9.03
2018-06-14T20:01:41.136Z,8.30
2018-06-14T20:04:10.148Z,7.90
2018-06-14T20:06:39.164Z,9.17
2018-06-14T20:09:09.052Z,9.97
2018-06-14T20:11:38.028Z,9.70
2018-06-14T20:14:07.058Z,9.57
2018-06-14T20:16:36.044Z,8.63
2018-06-14T20:19:05.141Z,7.70
2018-06-14T20:21:34.135Z,7.63
2018-06-14T20:24:03.095Z,9.77
2018-06-14T20:26:32.073Z,8.70
2018-06-14T20:29:01.139Z,8.03
2018-06-14T20:31:30.086Z,8.43
2018-06-14T20:33:59.033Z,7.97
2018-06-14T20:36:28.027Z,9.53
2018-06-14T20:41:47.028Z,7.67
2018-06-14T20:44:15.982Z,7.50
2018-06-14T20:46:45.007Z,7.33
2018-06-14T20:49:13.987Z,6.90
2018-06-14T20:51:43.031Z,7.80
2018-06-14T20:54:12.037Z,7.97
2018-06-14T20:56:41.034Z,8.00
2018-06-14T20:59:09.989Z,8.40
2018-06-14T21:01:38.941Z,7.80
2018-06-14T21:04:08.024Z,7.20
2018-06-14T21:06:37.071Z,7.50
2018-06-14T21:09:08.848Z,9.00
2018-06-14T21:11:38.103Z,8.27
2018-06-14T21:14:07.165Z,9.03
2018-06-14T21:16:36.757Z,8.50
2018-06-14T21:19:05.742Z,8.43
2018-06-14T21:21:34.701Z,8.90
2018-06-14T21:24:03.694Z,7.83
2018-06-14T21:26:32.772Z,7.77
2018-06-14T21:29:01.776Z,8.40
2018-06-14T21:31:30.759Z,8.27
2018-06-14T21:33:59.724Z,8.67
2018-06-14T21:36:28.691Z,8.13
2018-06-14T21:38:57.712Z,9.00
2018-06-14T21:41:26.694Z,7.80
2018-06-14T21:43:55.686Z,7.27
2018-06-14T21:46:25.581Z,7.93
2018-06-14T21:48:54.676Z,8.23
2018-06-14T21:51:23.702Z,8.53
2018-06-14T21:53:52.735Z,7.10
2018-06-14T21:56:21.736Z,7.83
2018-06-14T21:58:50.756Z,7.70
2018-06-14T22:01:19.714Z,8.17
2018-06-14T22:03:56.522Z,7.33
2018-06-14T22:06:25.858Z,7.57
2018-06-14T22:08:54.836Z,8.00
2018-06-14T22:11:23.853Z,6.87
2018-06-14T22:13:52.839Z,7.70
2018-06-14T22:16:21.902Z,7.60
2018-06-14T22:18:50.935Z,7.13
2018-06-14T22:21:19.908Z,7.50
2018-06-14T22:23:48.865Z,8.23
2018-06-14T22:26:17.866Z,8.20
2018-06-14T22:28:46.829Z,8.40
2018-06-14T22:31:15.806Z,7.20
2018-06-14T22:33:55.552Z,7.77
2018-06-14T22:36:24.644Z,6.50
2018-06-14T22:38:53.635Z,7.17
2018-06-14T22:41:22.600Z,7.43
2018-06-14T22:43:51.679Z,7.80
2018-06-14T22:46:20.692Z,7.97
2018-06-14T22:48:49.784Z,7.57
2018-06-14T22:51:21.032Z,8.30
2018-06-14T22:53:50.028Z,7.07
2018-06-14T22:56:19.052Z,7.50
2018-06-14T22:58:48.206Z,7.20
2018-06-14T23:02:06.863Z,9.27
2018-06-14T23:04:35.893Z,7.10
2018-06-14T23:07:04.871Z,7.40
2018-06-14T23:10:42.348Z,7.97
2018-06-14T23:13:12.594Z,6.80
2018-06-14T23:15:41.491Z,7.20
2018-06-14T23:18:10.457Z,8.47
2018-06-14T23:20:39.587Z,7.37
2018-06-14T23:23:08.930Z,7.60
2018-06-14T23:25:38.297Z,8.00
2018-06-14T23:28:07.371Z,7.33
2018-06-14T23:30:36.674Z,7.90
2018-06-14T23:33:05.670Z,8.90
2018-06-14T23:35:34.633Z,7.93
2018-06-14T23:38:03.643Z,8.40
2018-06-14T23:40:32.601Z,7.30
2018-06-14T23:43:02.197Z,7.73
2018-06-14T23:45:31.225Z,7.77
2018-06-14T23:48:00.207Z,7.70
2018-06-14T23:50:29.094Z,6.87
2018-06-14T23:52:58.042Z,7.83
2018-06-14T23:55:27.040Z,8.63
2018-06-14T23:57:56.001Z,7.17
